createdAt,value
2018-02-13T00:00:34.648Z,101088.59
2018-02-13T00:05:36.019Z,101089.42
2018-02-13T00:10:37.604Z,101088.54
2018-02-13T00:15:39.658Z,101087.25
2018-02-13T00:20:41.100Z,101088.05
2018-02-13T00:25:42.475Z,101089.33
2018-02-13T00:30:43.795Z,101092.36
2018-02-13T00:35:45.152Z,101088.94
2018-02-13T00:40:46.523Z,101084.20
2018-02-13T00:45:47.884Z,101084.20
2018-02-13T00:50:49.331Z,101091.97
2018-02-13T00:55:50.679Z,101093.23
2018-02-13T01:00:52.078Z,101096.66
2018-02-13T01:05:53.506Z,101081.99
2018-02-13T01:10:54.880Z,101085.91
2018-02-13T01:15:56.193Z,101079.03
2018-02-13T01:20:58.327Z,101087.13
2018-02-13T01:25:59.692Z,101087.11
2018-02-13T01:31:01.830Z,101087.59
2018-02-13T01:36:03.221Z,101079.38
2018-02-13T01:41:04.678Z,101078.13
2018-02-13T01:46:06.755Z,101072.95
2018-02-13T01:51:08.107Z,101082.80
2018-02-13T01:56:09.436Z,101081.83
2018-02-13T02:01:10.834Z,101081.38
2018-02-13T02:06:12.198Z,101076.22
2018-02-13T02:11:13.559Z,101079.20
2018-02-13T02:16:14.918Z,101072.73
2018-02-13T02:21:16.322Z,101077.50
2018-02-13T02:26:17.689Z,101069.77
2018-02-13T02:31:19.020Z,101078.36
2018-02-13T02:36:20.387Z,101070.23
2018-02-13T02:41:22.482Z,101073.23
2018-02-13T02:46:23.817Z,101069.36
2018-02-13T02:51:26.951Z,101065.91
2018-02-13T02:56:28.308Z,101060.27
2018-02-13T03:01:29.630Z,101064.17
2018-02-13T03:06:30.980Z,101068.03
2018-02-13T03:11:32.327Z,101064.92
2018-02-13T03:16:33.680Z,101064.44
2018-02-13T03:21:35.779Z,101058.02
2018-02-13T03:26:37.867Z,101062.31
2018-02-13T03:31:39.226Z,101060.07
2018-02-13T03:36:40.646Z,101050.63
2018-02-13T03:41:41.983Z,101052.33
2018-02-13T03:46:43.353Z,101044.53
2018-02-13T03:51:45.439Z,101045.88
2018-02-13T03:56:46.784Z,101041.53
2018-02-13T04:01:48.120Z,101038.98
2018-02-13T04:06:49.566Z,101043.77
2018-02-13T04:11:50.973Z,101049.38
2018-02-13T04:16:52.300Z,101048.91
2018-02-13T04:21:54.372Z,101053.10
2018-02-13T04:26:55.775Z,101032.76
2018-02-13T04:31:57.139Z,101041.82
2018-02-13T04:36:59.920Z,101048.66
2018-02-13T04:42:01.393Z,101051.27
2018-02-13T04:47:03.115Z,101044.38
2018-02-13T04:52:04.490Z,101027.17
2018-02-13T04:57:06.564Z,101032.84
2018-02-13T05:02:07.982Z,101044.78
2018-02-13T05:07:09.383Z,101043.91
2018-02-13T05:12:11.438Z,101030.56
2018-02-13T05:17:12.770Z,101026.22
2018-02-13T05:22:14.150Z,101023.77
2018-02-13T05:27:15.588Z,101024.58
2018-02-13T05:32:16.920Z,101019.81
2018-02-13T05:37:18.416Z,101019.84
2018-02-13T05:42:19.817Z,101026.70
2018-02-13T05:47:21.821Z,101019.34
2018-02-13T05:52:23.288Z,101020.24
2018-02-13T05:57:24.630Z,101015.10
2018-02-13T06:02:25.969Z,101012.12
2018-02-13T06:07:27.338Z,101006.47
2018-02-13T06:12:28.693Z,101005.70
2018-02-13T06:17:30.762Z,101022.38
2018-02-13T06:22:32.125Z,101015.03
2018-02-13T06:27:33.463Z,101004.69
2018-02-13T06:32:34.790Z,101009.44
2018-02-13T06:37:36.133Z,101012.89
2018-02-13T06:42:37.462Z,101010.72
2018-02-13T06:47:38.814Z,101021.46
2018-02-13T06:52:40.158Z,101026.25
2018-02-13T06:57:41.488Z,101015.55
2018-02-13T07:02:42.846Z,101028.06
2018-02-13T07:07:44.177Z,101034.58
2018-02-13T07:12:45.514Z,101036.75
2018-02-13T07:17:46.965Z,101049.38
2018-02-13T07:22:48.278Z,101042.58
2018-02-13T07:27:49.619Z,101046.16
2018-02-13T07:32:50.950Z,101046.73
2018-02-13T07:37:53.026Z,101039.22
2018-02-13T07:42:54.354Z,101037.25
2018-02-13T07:47:55.738Z,101037.77
2018-02-13T07:53:03.959Z,101038.69
2018-02-13T07:58:05.324Z,101033.97
2018-02-13T08:03:06.666Z,101029.66
2018-02-13T08:08:08.028Z,101026.63
2018-02-13T08:13:09.343Z,101020.16
2018-02-13T08:18:11.439Z,101015.87
2018-02-13T08:23:13.500Z,101012.84
2018-02-13T08:28:14.877Z,101017.57
2018-02-13T08:33:16.230Z,101021.03
2018-02-13T08:38:18.371Z,101016.75
2018-02-13T08:43:19.743Z,101013.30
2018-02-13T08:48:21.086Z,101014.16
2018-02-13T08:53:22.426Z,101013.73
2018-02-13T08:58:23.781Z,101016.33
2018-02-13T09:03:25.937Z,101018.45
2018-02-13T09:08:27.308Z,101009.84
2018-02-13T09:13:29.485Z,101012.84
2018-02-13T09:18:30.857Z,101008.10
2018-02-13T09:23:32.176Z,101014.14
2018-02-13T09:28:33.540Z,101010.69
2018-02-13T09:33:34.894Z,101013.69
2018-02-13T09:38:36.260Z,101006.76
2018-02-13T09:43:38.327Z,101007.15
2018-02-13T09:48:39.691Z,101005.81
2018-02-13T09:53:41.043Z,101001.42
2018-02-13T09:58:43.146Z,100995.80
2018-02-13T10:03:45.236Z,101006.99
2018-02-13T10:08:46.578Z,100998.31
2018-02-13T10:13:54.868Z,100998.30
2018-02-13T10:18:56.277Z,100994.38
2018-02-13T10:23:57.627Z,100998.23
2018-02-13T10:28:58.934Z,100988.20
2018-02-13T10:34:00.292Z,100987.33
2018-02-13T10:39:01.677Z,100981.27
2018-02-13T10:44:03.063Z,100973.38
2018-02-13T10:49:04.439Z,100961.22
2018-02-13T10:54:05.740Z,100967.21
2018-02-13T10:59:07.114Z,100968.03
2018-02-13T11:04:09.192Z,100964.05
2018-02-13T11:09:10.538Z,100957.97
2018-02-13T11:14:11.895Z,100960.87
2018-02-13T11:19:14.003Z,100960.80
2018-02-13T11:24:15.370Z,100952.08
2018-02-13T11:29:16.738Z,100945.44
2018-02-13T11:34:18.106Z,100942.72
2018-02-13T11:39:20.426Z,100949.05
2018-02-13T11:44:21.766Z,100935.14
2018-02-13T11:49:23.269Z,100940.91
2018-02-13T11:54:24.614Z,100938.19
2018-02-13T11:59:25.977Z,100938.56
2018-02-13T12:04:27.297Z,100934.16
2018-02-13T12:09:28.638Z,100929.20
2018-02-13T12:14:30.047Z,100928.09
2018-02-13T12:19:31.417Z,100922.78
2018-02-13T12:24:33.526Z,100929.19
2018-02-13T12:29:35.637Z,100918.48
2018-02-13T12:34:37.754Z,100910.94
2018-02-13T12:39:39.142Z,100908.66
2018-02-13T12:44:40.483Z,100900.44
2018-02-13T12:49:41.852Z,100902.20
2018-02-13T12:54:43.181Z,100890.41
2018-02-13T12:59:44.533Z,100890.38
2018-02-13T13:04:45.982Z,100888.27
2018-02-13T13:09:47.364Z,100875.17
2018-02-13T13:14:49.441Z,100875.98
2018-02-13T13:19:50.811Z,100867.05
2018-02-13T13:24:52.217Z,100863.07
2018-02-13T13:29:53.620Z,100843.77
2018-02-13T13:34:54.995Z,100848.08
2018-02-13T13:39:56.413Z,100833.59
2018-02-13T13:44:57.840Z,100835.56
2018-02-13T13:49:59.262Z,100830.31
2018-02-13T13:55:01.877Z,100825.48
2018-02-13T14:00:03.320Z,100823.04
2018-02-13T14:05:05.519Z,100820.47
2018-02-13T14:10:06.894Z,100823.23
2018-02-13T14:15:08.365Z,100819.30
2018-02-13T14:20:09.812Z,100822.12
2018-02-13T14:25:11.924Z,100823.45
2018-02-13T14:30:13.323Z,100821.88
2018-02-13T14:35:14.674Z,100817.27
2018-02-13T14:40:16.068Z,100818.74
2018-02-13T14:45:17.476Z,100822.06
2018-02-13T14:50:19.690Z,100817.78
2018-02-13T14:55:21.748Z,100819.55
2018-02-13T15:00:23.154Z,100815.70
2018-02-13T15:05:24.476Z,100816.63
2018-02-13T15:10:26.623Z,100821.84
2018-02-13T15:15:28.054Z,100833.08
2018-02-13T15:20:29.470Z,100819.44
2018-02-13T15:25:30.790Z,100831.58
2018-02-13T15:30:32.202Z,100843.52
2018-02-13T15:35:33.547Z,100843.37
2018-02-13T15:40:34.940Z,100839.09
2018-02-13T15:45:36.292Z,100844.79
2018-02-13T15:50:37.659Z,100846.64
2018-02-13T15:55:39.027Z,100847.16
2018-02-13T16:00:40.372Z,100846.97
2018-02-13T16:05:42.452Z,100846.31
2018-02-13T16:10:43.786Z,100845.77
2018-02-13T16:15:45.922Z,100856.84
2018-02-13T16:20:47.259Z,100863.58
2018-02-13T16:25:48.629Z,100874.59
2018-02-13T16:30:49.958Z,100870.51
2018-02-13T16:35:52.074Z,100877.19
2018-02-13T16:40:53.484Z,100883.84
2018-02-13T16:45:54.867Z,100881.34
2018-02-13T16:50:56.234Z,100883.14
2018-02-13T16:56:05.390Z,100883.21
2018-02-13T17:01:06.816Z,100889.38
2018-02-13T17:06:08.155Z,100888.59
2018-02-13T17:11:09.518Z,100897.75
2018-02-13T17:16:10.956Z,100899.05
2018-02-13T17:21:12.299Z,100897.38
2018-02-13T17:26:13.685Z,100900.89
2018-02-13T17:31:16.759Z,100900.48
2018-02-13T17:36:18.104Z,100909.21
2018-02-13T17:41:19.450Z,100900.98
2018-02-13T17:46:20.979Z,100913.11
2018-02-13T17:51:22.422Z,100913.21
2018-02-13T17:56:23.773Z,100911.94
2018-02-13T18:01:25.169Z,100910.67
2018-02-13T18:06:26.470Z,100918.43
2018-02-13T18:11:27.825Z,100911.14
2018-02-13T18:16:29.140Z,100911.16
2018-02-13T18:21:30.578Z,100912.88
2018-02-13T18:26:31.970Z,100908.13
2018-02-13T18:31:33.511Z,100914.19
2018-02-13T18:36:34.959Z,100920.20
2018-02-13T18:41:37.290Z,100927.10
2018-02-13T18:46:39.347Z,100927.11
2018-02-13T18:51:40.973Z,100929.70
2018-02-13T18:56:43.046Z,100928.80
2018-02-13T19:01:44.411Z,100929.24
2018-02-13T19:06:45.779Z,100941.33
2018-02-13T19:11:47.102Z,100950.38
2018-02-13T19:21:51.310Z,100953.82
2018-02-13T19:26:52.693Z,100952.08
2018-02-13T19:31:54.089Z,100958.09
2018-02-13T19:36:55.645Z,100960.63
2018-02-13T19:41:57.767Z,100961.02
2018-02-13T19:46:59.283Z,100955.87
2018-02-13T19:52:00.886Z,100908.45
2018-02-13T19:57:02.498Z,100958.89
2018-02-13T20:02:03.883Z,100964.92
2018-02-13T20:07:05.400Z,100960.20
2018-02-13T20:12:06.844Z,100964.48
2018-02-13T20:17:08.175Z,100964.48
2018-02-13T20:22:09.523Z,100968.76
2018-02-13T20:27:11.006Z,100975.66
2018-02-13T20:32:12.367Z,100968.30
2018-02-13T20:37:14.505Z,100986.79
2018-02-13T20:42:16.884Z,100986.28
2018-02-13T20:47:19.039Z,100994.00
2018-02-13T20:52:21.000Z,100985.47
2018-02-13T20:57:22.343Z,100994.03
2018-02-13T21:02:23.668Z,100991.52
2018-02-13T21:07:24.968Z,100997.50
2018-02-13T21:12:27.404Z,101000.54
2018-02-13T21:17:29.298Z,101007.85
2018-02-13T21:22:30.916Z,101013.36
2018-02-13T21:27:32.377Z,101018.03
2018-02-13T21:32:33.770Z,101016.15
2018-02-13T21:37:35.134Z,101011.88
2018-02-13T21:42:36.621Z,101013.58
2018-02-13T21:47:37.942Z,101020.45
2018-02-13T21:52:39.258Z,101019.92
2018-02-13T21:57:40.646Z,101011.70
2018-02-13T22:02:42.087Z,101013.91
2018-02-13T22:07:43.455Z,101013.05
2018-02-13T22:12:44.787Z,101014.67
2018-02-13T22:17:46.246Z,101020.18
2018-02-13T22:22:47.588Z,101015.45
2018-02-13T22:27:49.662Z,101016.63
2018-02-13T22:32:51.007Z,101020.13
2018-02-13T22:37:52.460Z,101022.40
2018-02-13T22:42:53.921Z,101029.16
2018-02-13T22:47:55.405Z,101027.83
2018-02-13T22:52:56.843Z,101030.53
2018-02-13T22:57:58.181Z,101032.90
2018-02-13T23:02:59.551Z,101042.66
2018-02-13T23:08:01.072Z,101041.91
2018-02-13T23:13:02.499Z,101046.52
2018-02-13T23:18:03.820Z,101055.28
2018-02-13T23:23:05.182Z,101048.25
2018-02-13T23:28:06.575Z,101052.41
2018-02-13T23:33:07.950Z,101046.52
2018-02-13T23:38:09.286Z,101059.53
2018-02-13T23:43:10.642Z,101065.47
2018-02-13T23:48:12.776Z,101062.46
2018-02-13T23:53:14.139Z,101066.34
2018-02-13T23:58:15.467Z,101065.78
